sensor_id;sensor_type;location;lat;lon;timestamp;temperature;humidity
41469;DHT22;27206;47.032;15.484;2023-06-26T00:00:15;16.80;1.00
41469;DHT22;27206;47.032;15.484;2023-06-26T00:02:41;16.80;1.00
41469;DHT22;27206;47.032;15.484;2023-06-26T00:05:07;16.80;1.00
41469;DHT22;27206;47.032;15.484;2023-06-26T00:07:33;16.80;99.90
41469;DHT22;27206;47.032;15.484;2023-06-26T00:10:00;16.80;99.90
41469;DHT22;27206;47.032;15.484;2023-06-26T00:12:26;16.70;99.90
41469;DHT22;27206;47.032;15.484;2023-06-26T00:14:51;16.70;1.00
41469;DHT22;27206;47.032;15.484;2023-06-26T00:17:18;16.80;99.90
41469;DHT22;27206;47.032;15.484;2023-06-26T00:19:43;16.70;99.90
41469;DHT22;27206;47.032;15.484;2023-06-26T00:22:09;16.70;1.00
41469;DHT22;27206;47.032;15.484;2023-06-26T00:24:35;16.60;1.00
41469;DHT22;27206;47.032;15.484;2023-06-26T00:27:00;16.70;1.00
41469;DHT22;27206;47.032;15.484;2023-06-26T00:29:26;16.60;1.00
41469;DHT22;27206;47.032;15.484;2023-06-26T00:31:52;16.50;1.00
41469;DHT22;27206;47.032;15.484;2023-06-26T00:34:17;16.60;1.00
41469;DHT22;27206;47.032;15.484;2023-06-26T00:36:44;16.50;1.00
41469;DHT22;27206;47.032;15.484;2023-06-26T00:39:10;16.40;1.00
41469;DHT22;27206;47.032;15.484;2023-06-26T00:41:38;16.40;1.00
41469;DHT22;27206;47.032;15.484;2023-06-26T00:44:05;16.40;1.00
41469;DHT22;27206;47.032;15.484;2023-06-26T00:46:31;16.30;1.00
41469;DHT22;27206;47.032;15.484;2023-06-26T00:48:59;16.40;1.00
41469;DHT22;27206;47.032;15.484;2023-06-26T00:51:26;16.40;1.00
41469;DHT22;27206;47.032;15.484;2023-06-26T00:53:52;16.40;1.00
41469;DHT22;27206;47.032;15.484;2023-06-26T00:56:19;16.30;1.00
41469;DHT22;27206;47.032;15.484;2023-06-26T00:58:45;16.30;1.00
41469;DHT22;27206;47.032;15.484;2023-06-26T01:01:11;16.30;1.00
41469;DHT22;27206;47.032;15.484;2023-06-26T01:03:43;16.30;1.00
41469;DHT22;27206;47.032;15.484;2023-06-26T01:06:11;16.30;1.00
41469;DHT22;27206;47.032;15.484;2023-06-26T01:08:39;16.20;1.00
41469;DHT22;27206;47.032;15.484;2023-06-26T01:11:06;16.20;1.00
41469;DHT22;27206;47.032;15.484;2023-06-26T01:13:33;16.30;1.00
41469;DHT22;27206;47.032;15.484;2023-06-26T01:16:00;16.20;1.00
41469;DHT22;27206;47.032;15.484;2023-06-26T01:18:27;16.20;1.00
41469;DHT22;27206;47.032;15.484;2023-06-26T01:20:54;16.20;1.00
41469;DHT22;27206;47.032;15.484;2023-06-26T01:26:19;16.20;1.00
41469;DHT22;27206;47.032;15.484;2023-06-26T01:28:47;16.10;1.00
41469;DHT22;27206;47.032;15.484;2023-06-26T01:31:13;16.00;1.00
41469;DHT22;27206;47.032;15.484;2023-06-26T01:33:41;15.90;1.00
41469;DHT22;27206;47.032;15.484;2023-06-26T01:36:07;15.80;1.00
41469;DHT22;27206;47.032;15.484;2023-06-26T01:38:33;15.80;1.00
41469;DHT22;27206;47.032;15.484;2023-06-26T01:41:00;15.80;1.00
41469;DHT22;27206;47.032;15.484;2023-06-26T01:46:46;15.80;1.00
41469;DHT22;27206;47.032;15.484;2023-06-26T01:52:03;15.80;1.00
41469;DHT22;27206;47.032;15.484;2023-06-26T01:54:35;15.70;1.00
41469;DHT22;27206;47.032;15.484;2023-06-26T01:57:02;15.70;1.00
41469;DHT22;27206;47.032;15.484;2023-06-26T01:59:32;15.60;1.00
41469;DHT22;27206;47.032;15.484;2023-06-26T02:02:00;15.60;1.00
41469;DHT22;27206;47.032;15.484;2023-06-26T02:04:26;15.50;1.00
41469;DHT22;27206;47.032;15.484;2023-06-26T02:06:51;15.50;1.00
41469;DHT22;27206;47.032;15.484;2023-06-26T02:09:17;15.50;1.00
41469;DHT22;27206;47.032;15.484;2023-06-26T02:11:43;15.50;1.00
41469;DHT22;27206;47.032;15.484;2023-06-26T02:14:08;15.50;1.00
41469;DHT22;27206;47.032;15.484;2023-06-26T02:16:35;15.50;1.00
41469;DHT22;27206;47.032;15.484;2023-06-26T02:19:01;15.50;1.00
41469;DHT22;27206;47.032;15.484;2023-06-26T02:21:26;15.50;1.00
41469;DHT22;27206;47.032;15.484;2023-06-26T02:23:52;15.60;1.00
41469;DHT22;27206;47.032;15.484;2023-06-26T02:26:18;15.50;1.00
41469;DHT22;27206;47.032;15.484;2023-06-26T02:28:44;15.50;1.00
41469;DHT22;27206;47.032;15.484;2023-06-26T02:31:09;15.50;1.00
41469;DHT22;27206;47.032;15.484;2023-06-26T02:33:35;15.40;1.00
41469;DHT22;27206;47.032;15.484;2023-06-26T02:36:00;15.50;1.00
41469;DHT22;27206;47.032;15.484;2023-06-26T02:38:26;15.40;1.00
41469;DHT22;27206;47.032;15.484;2023-06-26T02:40:52;15.40;1.00
41469;DHT22;27206;47.032;15.484;2023-06-26T02:43:17;15.50;1.00
41469;DHT22;27206;47.032;15.484;2023-06-26T02:45:43;15.40;1.00
41469;DHT22;27206;47.032;15.484;2023-06-26T02:48:08;15.50;1.00
41469;DHT22;27206;47.032;15.484;2023-06-26T02:50:34;15.40;1.00
41469;DHT22;27206;47.032;15.484;2023-06-26T02:53:00;15.50;1.00
41469;DHT22;27206;47.032;15.484;2023-06-26T02:55:25;15.40;1.00
41469;DHT22;27206;47.032;15.484;2023-06-26T02:57:51;15.40;1.00
41469;DHT22;27206;47.032;15.484;2023-06-26T03:00:17;15.40;1.00
41469;DHT22;27206;47.032;15.484;2023-06-26T03:02:42;15.40;1.00
41469;DHT22;27206;47.032;15.484;2023-06-26T03:05:08;15.40;1.00
41469;DHT22;27206;47.032;15.484;2023-06-26T03:07:34;15.40;1.00
41469;DHT22;27206;47.032;15.484;2023-06-26T03:09:59;15.30;1.00
41469;DHT22;27206;47.032;15.484;2023-06-26T03:12:25;15.30;1.00
41469;DHT22;27206;47.032;15.484;2023-06-26T03:14:51;15.30;1.00
41469;DHT22;27206;47.032;15.484;2023-06-26T03:17:17;15.20;1.00
41469;DHT22;27206;47.032;15.484;2023-06-26T03:19:42;15.30;1.00
41469;DHT22;27206;47.032;15.484;2023-06-26T03:22:08;15.30;1.00
41469;DHT22;27206;47.032;15.484;2023-06-26T03:24:36;15.30;1.00
41469;DHT22;27206;47.032;15.484;2023-06-26T03:27:02;15.30;1.00
41469;DHT22;27206;47.032;15.484;2023-06-26T03:29:28;15.30;1.00
41469;DHT22;27206;47.032;15.484;2023-06-26T03:31:55;15.30;1.00
41469;DHT22;27206;47.032;15.484;2023-06-26T03:34:20;15.20;1.00
41469;DHT22;27206;47.032;15.484;2023-06-26T03:36:46;15.30;1.00
41469;DHT22;27206;47.032;15.484;2023-06-26T03:39:12;15.30;1.00
41469;DHT22;27206;47.032;15.484;2023-06-26T03:41:38;15.40;1.00
41469;DHT22;27206;47.032;15.484;2023-06-26T03:44:03;15.40;1.00
41469;DHT22;27206;47.032;15.484;2023-06-26T03:46:29;15.50;1.00
41469;DHT22;27206;47.032;15.484;2023-06-26T03:48:55;15.60;1.00
41469;DHT22;27206;47.032;15.484;2023-06-26T03:51:20;15.60;1.00
41469;DHT22;27206;47.032;15.484;2023-06-26T03:53:46;15.60;1.00
41469;DHT22;27206;47.032;15.484;2023-06-26T03:56:12;15.70;1.00
41469;DHT22;27206;47.032;15.484;2023-06-26T03:58:37;15.70;1.00
41469;DHT22;27206;47.032;15.484;2023-06-26T04:01:03;15.80;1.00
41469;DHT22;27206;47.032;15.484;2023-06-26T04:03:29;16.10;1.00
41469;DHT22;27206;47.032;15.484;2023-06-26T04:05:54;16.10;1.00
41469;DHT22;27206;47.032;15.484;2023-06-26T04:08:20;16.10;1.00
41469;DHT22;27206;47.032;15.484;2023-06-26T04:10:46;16.30;1.00
41469;DHT22;27206;47.032;15.484;2023-06-26T04:13:14;16.60;99.90
41469;DHT22;27206;47.032;15.484;2023-06-26T04:15:39;16.70;99.90
41469;DHT22;27206;47.032;15.484;2023-06-26T04:18:05;16.80;99.90
41469;DHT22;27206;47.032;15.484;2023-06-26T04:20:31;16.90;99.90
41469;DHT22;27206;47.032;15.484;2023-06-26T04:22:56;16.90;99.90
41469;DHT22;27206;47.032;15.484;2023-06-26T04:25:22;16.90;99.90
41469;DHT22;27206;47.032;15.484;2023-06-26T04:27:47;16.80;99.90
41469;DHT22;27206;47.032;15.484;2023-06-26T04:30:13;16.80;99.90
41469;DHT22;27206;47.032;15.484;2023-06-26T04:32:39;16.90;99.90
41469;DHT22;27206;47.032;15.484;2023-06-26T04:35:05;16.90;99.90
41469;DHT22;27206;47.032;15.484;2023-06-26T04:37:30;17.00;99.90
41469;DHT22;27206;47.032;15.484;2023-06-26T04:39:56;17.50;99.90
41469;DHT22;27206;47.032;15.484;2023-06-26T04:42:22;17.60;99.90
41469;DHT22;27206;47.032;15.484;2023-06-26T04:44:47;17.50;99.90
41469;DHT22;27206;47.032;15.484;2023-06-26T04:47:13;17.50;99.90
41469;DHT22;27206;47.032;15.484;2023-06-26T04:49:42;17.60;99.90
41469;DHT22;27206;47.032;15.484;2023-06-26T04:52:12;17.60;99.90
41469;DHT22;27206;47.032;15.484;2023-06-26T04:54:39;17.60;99.90
41469;DHT22;27206;47.032;15.484;2023-06-26T04:57:05;17.80;99.90
41469;DHT22;27206;47.032;15.484;2023-06-26T04:59:31;18.00;99.90
41469;DHT22;27206;47.032;15.484;2023-06-26T05:01:57;17.90;99.90
41469;DHT22;27206;47.032;15.484;2023-06-26T05:04:22;17.90;99.90
41469;DHT22;27206;47.032;15.484;2023-06-26T05:06:48;17.80;99.90
41469;DHT22;27206;47.032;15.484;2023-06-26T05:09:14;17.90;99.90
41469;DHT22;27206;47.032;15.484;2023-06-26T05:11:40;18.10;99.90
41469;DHT22;27206;47.032;15.484;2023-06-26T05:14:06;18.10;99.90
41469;DHT22;27206;47.032;15.484;2023-06-26T05:16:35;18.10;99.90
41469;DHT22;27206;47.032;15.484;2023-06-26T05:19:00;18.20;99.90
41469;DHT22;27206;47.032;15.484;2023-06-26T05:21:27;18.10;99.90
41469;DHT22;27206;47.032;15.484;2023-06-26T05:23:56;18.10;99.90
41469;DHT22;27206;47.032;15.484;2023-06-26T05:26:22;18.30;99.90
41469;DHT22;27206;47.032;15.484;2023-06-26T05:28:48;18.40;99.90
41469;DHT22;27206;47.032;15.484;2023-06-26T05:31:15;18.50;99.90
41469;DHT22;27206;47.032;15.484;2023-06-26T05:33:43;18.50;99.90
41469;DHT22;27206;47.032;15.484;2023-06-26T05:36:11;18.60;99.90
41469;DHT22;27206;47.032;15.484;2023-06-26T05:38:38;18.70;99.90
41469;DHT22;27206;47.032;15.484;2023-06-26T05:41:03;18.70;99.90
41469;DHT22;27206;47.032;15.484;2023-06-26T05:43:29;18.80;99.90
41469;DHT22;27206;47.032;15.484;2023-06-26T05:45:57;18.90;99.90
41469;DHT22;27206;47.032;15.484;2023-06-26T05:48:25;18.90;99.90
41469;DHT22;27206;47.032;15.484;2023-06-26T05:50:51;19.00;99.90
41469;DHT22;27206;47.032;15.484;2023-06-26T05:53:17;19.00;99.90
41469;DHT22;27206;47.032;15.484;2023-06-26T05:55:43;19.10;99.90
41469;DHT22;27206;47.032;15.484;2023-06-26T05:58:10;19.20;99.90
41469;DHT22;27206;47.032;15.484;2023-06-26T06:00:38;19.20;99.90
41469;DHT22;27206;47.032;15.484;2023-06-26T06:03:03;19.30;99.90
41469;DHT22;27206;47.032;15.484;2023-06-26T06:05:29;19.40;99.90
41469;DHT22;27206;47.032;15.484;2023-06-26T06:07:55;19.50;99.90
41469;DHT22;27206;47.032;15.484;2023-06-26T06:10:20;19.50;99.90
41469;DHT22;27206;47.032;15.484;2023-06-26T06:12:46;19.70;99.90
41469;DHT22;27206;47.032;15.484;2023-06-26T06:15:12;19.80;99.90
41469;DHT22;27206;47.032;15.484;2023-06-26T06:17:37;19.90;99.90
41469;DHT22;27206;47.032;15.484;2023-06-26T06:20:03;20.10;99.90
41469;DHT22;27206;47.032;15.484;2023-06-26T06:22:30;20.10;99.90
41469;DHT22;27206;47.032;15.484;2023-06-26T06:24:55;20.00;99.90
41469;DHT22;27206;47.032;15.484;2023-06-26T06:27:21;20.00;99.90
41469;DHT22;27206;47.032;15.484;2023-06-26T06:29:46;20.00;99.90
41469;DHT22;27206;47.032;15.484;2023-06-26T06:32:12;20.00;99.90
41469;DHT22;27206;47.032;15.484;2023-06-26T06:34:38;20.10;99.90
41469;DHT22;27206;47.032;15.484;2023-06-26T06:37:03;20.20;99.90
41469;DHT22;27206;47.032;15.484;2023-06-26T06:39:29;20.30;99.90
41469;DHT22;27206;47.032;15.484;2023-06-26T06:41:55;20.30;99.90
41469;DHT22;27206;47.032;15.484;2023-06-26T06:44:21;20.40;99.90
41469;DHT22;27206;47.032;15.484;2023-06-26T06:46:47;20.40;99.90
41469;DHT22;27206;47.032;15.484;2023-06-26T06:49:13;20.50;99.90
41469;DHT22;27206;47.032;15.484;2023-06-26T06:51:38;20.60;99.90
41469;DHT22;27206;47.032;15.484;2023-06-26T06:54:04;20.60;99.90
41469;DHT22;27206;47.032;15.484;2023-06-26T06:56:29;20.70;99.90
41469;DHT22;27206;47.032;15.484;2023-06-26T06:58:55;20.70;99.90
41469;DHT22;27206;47.032;15.484;2023-06-26T07:01:21;20.80;99.90
41469;DHT22;27206;47.032;15.484;2023-06-26T07:03:46;21.00;99.90
41469;DHT22;27206;47.032;15.484;2023-06-26T07:06:12;21.00;99.90
41469;DHT22;27206;47.032;15.484;2023-06-26T07:08:38;21.10;99.90
41469;DHT22;27206;47.032;15.484;2023-06-26T07:11:03;21.20;99.90
41469;DHT22;27206;47.032;15.484;2023-06-26T07:13:29;21.20;99.90
41469;DHT22;27206;47.032;15.484;2023-06-26T07:15:55;21.30;99.90
41469;DHT22;27206;47.032;15.484;2023-06-26T07:18:20;21.50;99.90
41469;DHT22;27206;47.032;15.484;2023-06-26T07:20:46;21.60;99.90
41469;DHT22;27206;47.032;15.484;2023-06-26T07:23:11;21.70;99.90
41469;DHT22;27206;47.032;15.484;2023-06-26T07:25:37;21.80;99.90
41469;DHT22;27206;47.032;15.484;2023-06-26T07:28:03;21.90;99.90
41469;DHT22;27206;47.032;15.484;2023-06-26T07:30:29;22.00;99.90
41469;DHT22;27206;47.032;15.484;2023-06-26T07:32:54;22.00;99.90
41469;DHT22;27206;47.032;15.484;2023-06-26T07:35:20;22.10;99.90
41469;DHT22;27206;47.032;15.484;2023-06-26T07:37:46;22.10;99.90
41469;DHT22;27206;47.032;15.484;2023-06-26T07:40:11;22.30;99.90
41469;DHT22;27206;47.032;15.484;2023-06-26T07:42:37;22.30;99.90
41469;DHT22;27206;47.032;15.484;2023-06-26T07:45:03;22.30;99.90
41469;DHT22;27206;47.032;15.484;2023-06-26T07:47:37;22.50;99.90
41469;DHT22;27206;47.032;15.484;2023-06-26T07:50:02;22.70;99.90
41469;DHT22;27206;47.032;15.484;2023-06-26T07:52:28;22.80;99.90
41469;DHT22;27206;47.032;15.484;2023-06-26T07:54:55;22.80;99.90
41469;DHT22;27206;47.032;15.484;2023-06-26T07:57:21;22.90;99.90
41469;DHT22;27206;47.032;15.484;2023-06-26T07:59:47;23.10;99.90
41469;DHT22;27206;47.032;15.484;2023-06-26T08:02:12;23.20;99.90
41469;DHT22;27206;47.032;15.484;2023-06-26T08:04:38;23.20;99.90
41469;DHT22;27206;47.032;15.484;2023-06-26T08:07:03;23.30;99.90
41469;DHT22;27206;47.032;15.484;2023-06-26T08:09:30;23.40;99.90
41469;DHT22;27206;47.032;15.484;2023-06-26T08:11:56;23.50;99.90
41469;DHT22;27206;47.032;15.484;2023-06-26T08:14:22;23.60;99.90
41469;DHT22;27206;47.032;15.484;2023-06-26T08:16:48;23.60;99.90
41469;DHT22;27206;47.032;15.484;2023-06-26T08:19:15;23.80;99.90
41469;DHT22;27206;47.032;15.484;2023-06-26T08:21:45;23.80;99.90
41469;DHT22;27206;47.032;15.484;2023-06-26T08:24:11;23.90;99.90
41469;DHT22;27206;47.032;15.484;2023-06-26T08:26:38;24.00;99.90
41469;DHT22;27206;47.032;15.484;2023-06-26T08:29:04;24.10;99.90
41469;DHT22;27206;47.032;15.484;2023-06-26T08:31:37;24.20;99.90
41469;DHT22;27206;47.032;15.484;2023-06-26T08:34:03;24.40;99.90
41469;DHT22;27206;47.032;15.484;2023-06-26T08:36:30;24.40;99.90
41469;DHT22;27206;47.032;15.484;2023-06-26T08:38:56;24.40;99.90
41469;DHT22;27206;47.032;15.484;2023-06-26T08:41:21;24.60;99.90
41469;DHT22;27206;47.032;15.484;2023-06-26T08:43:47;24.60;99.90
41469;DHT22;27206;47.032;15.484;2023-06-26T08:46:14;24.60;99.90
41469;DHT22;27206;47.032;15.484;2023-06-26T08:48:45;24.80;99.90
41469;DHT22;27206;47.032;15.484;2023-06-26T08:51:16;24.90;99.90
41469;DHT22;27206;47.032;15.484;2023-06-26T08:53:59;25.00;99.90
41469;DHT22;27206;47.032;15.484;2023-06-26T08:56:32;25.20;99.90
41469;DHT22;27206;47.032;15.484;2023-06-26T08:58:57;25.10;99.90
41469;DHT22;27206;47.032;15.484;2023-06-26T09:01:24;25.20;99.90
41469;DHT22;27206;47.032;15.484;2023-06-26T09:03:51;25.30;99.90
41469;DHT22;27206;47.032;15.484;2023-06-26T09:06:17;25.30;99.90
41469;DHT22;27206;47.032;15.484;2023-06-26T09:08:44;25.40;99.90
41469;DHT22;27206;47.032;15.484;2023-06-26T09:11:09;25.50;99.90
41469;DHT22;27206;47.032;15.484;2023-06-26T09:13:35;25.60;99.90
41469;DHT22;27206;47.032;15.484;2023-06-26T09:16:07;25.70;99.90
41469;DHT22;27206;47.032;15.484;2023-06-26T09:18:33;25.90;99.90
41469;DHT22;27206;47.032;15.484;2023-06-26T09:21:00;26.10;99.90
41469;DHT22;27206;47.032;15.484;2023-06-26T09:23:26;26.30;99.90
41469;DHT22;27206;47.032;15.484;2023-06-26T09:25:52;26.50;99.90
41469;DHT22;27206;47.032;15.484;2023-06-26T09:28:18;26.90;99.90
41469;DHT22;27206;47.032;15.484;2023-06-26T09:30:44;27.00;99.90
41469;DHT22;27206;47.032;15.484;2023-06-26T09:33:19;27.20;99.90
41469;DHT22;27206;47.032;15.484;2023-06-26T09:35:45;27.40;99.90
41469;DHT22;27206;47.032;15.484;2023-06-26T09:38:12;27.30;99.90
41469;DHT22;27206;47.032;15.484;2023-06-26T09:40:38;27.50;99.90
41469;DHT22;27206;47.032;15.484;2023-06-26T09:43:05;27.70;99.90
41469;DHT22;27206;47.032;15.484;2023-06-26T09:45:33;28.00;99.90
41469;DHT22;27206;47.032;15.484;2023-06-26T09:48:00;28.30;99.90
41469;DHT22;27206;47.032;15.484;2023-06-26T09:50:28;28.50;99.90
41469;DHT22;27206;47.032;15.484;2023-06-26T09:52:55;28.50;99.90
41469;DHT22;27206;47.032;15.484;2023-06-26T09:55:21;28.20;99.90
41469;DHT22;27206;47.032;15.484;2023-06-26T09:57:49;28.10;99.90
41469;DHT22;27206;47.032;15.484;2023-06-26T10:00:16;28.10;99.90
41469;DHT22;27206;47.032;15.484;2023-06-26T10:02:42;28.30;99.90
41469;DHT22;27206;47.032;15.484;2023-06-26T10:05:07;28.30;99.90
41469;DHT22;27206;47.032;15.484;2023-06-26T10:07:34;27.90;99.90
41469;DHT22;27206;47.032;15.484;2023-06-26T10:10:02;27.40;99.90
41469;DHT22;27206;47.032;15.484;2023-06-26T10:12:29;27.10;99.90
41469;DHT22;27206;47.032;15.484;2023-06-26T10:14:56;26.90;99.90
41469;DHT22;27206;47.032;15.484;2023-06-26T10:17:25;27.20;99.90
41469;DHT22;27206;47.032;15.484;2023-06-26T10:19:51;27.20;99.90
41469;DHT22;27206;47.032;15.484;2023-06-26T10:22:20;27.50;99.90
41469;DHT22;27206;47.032;15.484;2023-06-26T10:24:48;27.30;99.90
41469;DHT22;27206;47.032;15.484;2023-06-26T10:27:17;27.50;99.90
41469;DHT22;27206;47.032;15.484;2023-06-26T10:29:50;27.90;99.90
41469;DHT22;27206;47.032;15.484;2023-06-26T10:32:18;27.90;99.90
41469;DHT22;27206;47.032;15.484;2023-06-26T10:34:45;28.20;99.90
41469;DHT22;27206;47.032;15.484;2023-06-26T10:37:12;27.80;99.90
41469;DHT22;27206;47.032;15.484;2023-06-26T10:39:49;27.90;99.90
41469;DHT22;27206;47.032;15.484;2023-06-26T10:42:19;28.20;99.90
41469;DHT22;27206;47.032;15.484;2023-06-26T10:44:46;28.50;99.90
41469;DHT22;27206;47.032;15.484;2023-06-26T10:47:32;28.50;99.90
41469;DHT22;27206;47.032;15.484;2023-06-26T10:50:20;28.90;99.90
41469;DHT22;27206;47.032;15.484;2023-06-26T10:52:54;29.10;99.90
41469;DHT22;27206;47.032;15.484;2023-06-26T10:55:31;29.00;99.90
41469;DHT22;27206;47.032;15.484;2023-06-26T10:57:57;29.20;99.90
41469;DHT22;27206;47.032;15.484;2023-06-26T11:00:23;29.30;99.90
41469;DHT22;27206;47.032;15.484;2023-06-26T11:02:50;29.40;99.90
41469;DHT22;27206;47.032;15.484;2023-06-26T11:05:33;29.60;99.90
41469;DHT22;27206;47.032;15.484;2023-06-26T11:08:09;30.00;99.90
41469;DHT22;27206;47.032;15.484;2023-06-26T11:13:17;30.10;99.90
41469;DHT22;27206;47.032;15.484;2023-06-26T11:15:43;30.20;99.90
41469;DHT22;27206;47.032;15.484;2023-06-26T11:18:12;29.90;99.90
41469;DHT22;27206;47.032;15.484;2023-06-26T11:20:38;29.90;99.90
41469;DHT22;27206;47.032;15.484;2023-06-26T11:23:04;29.90;99.90
41469;DHT22;27206;47.032;15.484;2023-06-26T11:25:36;29.80;99.90
41469;DHT22;27206;47.032;15.484;2023-06-26T11:28:03;29.60;99.90
41469;DHT22;27206;47.032;15.484;2023-06-26T11:30:29;29.60;99.90
41469;DHT22;27206;47.032;15.484;2023-06-26T11:33:06;30.00;99.90
41469;DHT22;27206;47.032;15.484;2023-06-26T11:35:32;30.00;99.90
41469;DHT22;27206;47.032;15.484;2023-06-26T11:37:59;29.80;99.90
41469;DHT22;27206;47.032;15.484;2023-06-26T11:40:26;29.80;99.90
41469;DHT22;27206;47.032;15.484;2023-06-26T11:42:55;29.90;99.90
41469;DHT22;27206;47.032;15.484;2023-06-26T11:45:21;30.20;99.90
41469;DHT22;27206;47.032;15.484;2023-06-26T11:47:46;30.60;99.90
41469;DHT22;27206;47.032;15.484;2023-06-26T11:50:16;30.80;99.90
41469;DHT22;27206;47.032;15.484;2023-06-26T11:52:43;30.60;99.90
41469;DHT22;27206;47.032;15.484;2023-06-26T11:55:09;30.20;99.90
41469;DHT22;27206;47.032;15.484;2023-06-26T11:57:36;29.90;99.90
41469;DHT22;27206;47.032;15.484;2023-06-26T12:00:14;29.90;99.90
41469;DHT22;27206;47.032;15.484;2023-06-26T12:02:41;30.00;99.90
41469;DHT22;27206;47.032;15.484;2023-06-26T12:05:08;30.10;99.90
41469;DHT22;27206;47.032;15.484;2023-06-26T12:07:34;30.60;99.90
41469;DHT22;27206;47.032;15.484;2023-06-26T12:10:02;30.90;99.90
41469;DHT22;27206;47.032;15.484;2023-06-26T12:12:29;30.80;99.90
41469;DHT22;27206;47.032;15.484;2023-06-26T12:14:57;30.60;99.90
41469;DHT22;27206;47.032;15.484;2023-06-26T12:17:23;30.90;99.90
41469;DHT22;27206;47.032;15.484;2023-06-26T12:19:52;30.50;99.90
41469;DHT22;27206;47.032;15.484;2023-06-26T12:22:19;31.20;99.90
41469;DHT22;27206;47.032;15.484;2023-06-26T12:24:46;31.90;99.90
41469;DHT22;27206;47.032;15.484;2023-06-26T12:27:13;31.60;99.90
41469;DHT22;27206;47.032;15.484;2023-06-26T12:29:41;31.90;99.90
41469;DHT22;27206;47.032;15.484;2023-06-26T12:32:10;32.00;99.90
41469;DHT22;27206;47.032;15.484;2023-06-26T12:34:37;32.00;99.90
41469;DHT22;27206;47.032;15.484;2023-06-26T12:37:10;31.50;99.90
41469;DHT22;27206;47.032;15.484;2023-06-26T12:42:18;30.20;99.90
41469;DHT22;27206;47.032;15.484;2023-06-26T12:44:45;30.20;99.90
41469;DHT22;27206;47.032;15.484;2023-06-26T12:47:10;31.10;99.90
41469;DHT22;27206;47.032;15.484;2023-06-26T12:49:40;32.00;99.90
41469;DHT22;27206;47.032;15.484;2023-06-26T12:52:11;31.60;99.90
41469;DHT22;27206;47.032;15.484;2023-06-26T12:54:39;31.90;99.90
41469;DHT22;27206;47.032;15.484;2023-06-26T12:57:06;32.20;99.90
41469;DHT22;27206;47.032;15.484;2023-06-26T12:59:32;32.40;99.90
41469;DHT22;27206;47.032;15.484;2023-06-26T13:01:59;32.70;99.90
41469;DHT22;27206;47.032;15.484;2023-06-26T13:04:25;32.40;99.90
41469;DHT22;27206;47.032;15.484;2023-06-26T13:06:51;32.60;99.90
41469;DHT22;27206;47.032;15.484;2023-06-26T13:09:17;32.90;99.90
41469;DHT22;27206;47.032;15.484;2023-06-26T13:11:43;32.70;99.90
41469;DHT22;27206;47.032;15.484;2023-06-26T13:14:08;33.00;99.90
41469;DHT22;27206;47.032;15.484;2023-06-26T13:16:34;33.00;99.90
41469;DHT22;27206;47.032;15.484;2023-06-26T13:19:00;33.10;99.90
41469;DHT22;27206;47.032;15.484;2023-06-26T13:21:27;33.30;99.90
41469;DHT22;27206;47.032;15.484;2023-06-26T13:23:53;33.20;99.90
41469;DHT22;27206;47.032;15.484;2023-06-26T13:26:19;33.60;99.90
41469;DHT22;27206;47.032;15.484;2023-06-26T13:28:45;34.70;99.90
41469;DHT22;27206;47.032;15.484;2023-06-26T13:31:10;34.30;99.90
41469;DHT22;27206;47.032;15.484;2023-06-26T13:33:36;34.20;99.90
41469;DHT22;27206;47.032;15.484;2023-06-26T13:36:02;34.70;99.90
41469;DHT22;27206;47.032;15.484;2023-06-26T13:38:32;35.10;99.90
41469;DHT22;27206;47.032;15.484;2023-06-26T13:40:58;34.10;99.90
41469;DHT22;27206;47.032;15.484;2023-06-26T13:43:26;34.00;99.90
41469;DHT22;27206;47.032;15.484;2023-06-26T13:45:52;34.30;99.90
41469;DHT22;27206;47.032;15.484;2023-06-26T13:48:18;34.70;99.90
41469;DHT22;27206;47.032;15.484;2023-06-26T13:50:44;35.00;99.90
41469;DHT22;27206;47.032;15.484;2023-06-26T13:53:10;35.20;99.90
41469;DHT22;27206;47.032;15.484;2023-06-26T13:55:35;35.80;99.90
41469;DHT22;27206;47.032;15.484;2023-06-26T13:58:06;36.00;99.90
41469;DHT22;27206;47.032;15.484;2023-06-26T14:00:33;35.90;99.90
41469;DHT22;27206;47.032;15.484;2023-06-26T14:03:05;34.00;99.90
41469;DHT22;27206;47.032;15.484;2023-06-26T14:05:36;33.60;99.90
41469;DHT22;27206;47.032;15.484;2023-06-26T14:08:06;34.50;99.90
41469;DHT22;27206;47.032;15.484;2023-06-26T14:10:32;34.20;99.90
41469;DHT22;27206;47.032;15.484;2023-06-26T14:12:59;34.30;99.90
41469;DHT22;27206;47.032;15.484;2023-06-26T14:15:25;34.70;99.90
41469;DHT22;27206;47.032;15.484;2023-06-26T14:17:50;34.70;99.90
41469;DHT22;27206;47.032;15.484;2023-06-26T14:20:16;34.40;99.90
41469;DHT22;27206;47.032;15.484;2023-06-26T14:22:43;34.90;99.90
41469;DHT22;27206;47.032;15.484;2023-06-26T14:25:10;34.70;99.90
41469;DHT22;27206;47.032;15.484;2023-06-26T14:27:36;35.00;99.90
41469;DHT22;27206;47.032;15.484;2023-06-26T14:30:04;34.80;99.90
41469;DHT22;27206;47.032;15.484;2023-06-26T14:32:30;35.00;99.90
41469;DHT22;27206;47.032;15.484;2023-06-26T14:34:57;35.20;99.90
41469;DHT22;27206;47.032;15.484;2023-06-26T14:37:24;35.40;99.90
41469;DHT22;27206;47.032;15.484;2023-06-26T14:39:51;35.30;99.90
41469;DHT22;27206;47.032;15.484;2023-06-26T14:42:16;35.40;99.90
41469;DHT22;27206;47.032;15.484;2023-06-26T14:44:42;35.00;99.90
41469;DHT22;27206;47.032;15.484;2023-06-26T14:47:08;35.20;99.90
41469;DHT22;27206;47.032;15.484;2023-06-26T14:49:33;34.90;99.90
41469;DHT22;27206;47.032;15.484;2023-06-26T14:51:59;34.70;99.90
41469;DHT22;27206;47.032;15.484;2023-06-26T14:54:25;34.30;99.90
41469;DHT22;27206;47.032;15.484;2023-06-26T14:56:50;34.60;99.90
41469;DHT22;27206;47.032;15.484;2023-06-26T14:59:16;34.60;99.90
41469;DHT22;27206;47.032;15.484;2023-06-26T15:01:42;34.40;99.90
41469;DHT22;27206;47.032;15.484;2023-06-26T15:04:07;34.50;99.90
41469;DHT22;27206;47.032;15.484;2023-06-26T15:06:34;34.50;99.90
41469;DHT22;27206;47.032;15.484;2023-06-26T15:09:00;34.50;99.90
41469;DHT22;27206;47.032;15.484;2023-06-26T15:11:26;34.20;99.90
41469;DHT22;27206;47.032;15.484;2023-06-26T15:13:51;34.10;99.90
41469;DHT22;27206;47.032;15.484;2023-06-26T15:16:17;34.00;99.90
41469;DHT22;27206;47.032;15.484;2023-06-26T15:18:44;33.70;99.90
41469;DHT22;27206;47.032;15.484;2023-06-26T15:21:09;34.00;99.90
41469;DHT22;27206;47.032;15.484;2023-06-26T15:23:35;34.20;99.90
41469;DHT22;27206;47.032;15.484;2023-06-26T15:26:01;33.90;99.90
41469;DHT22;27206;47.032;15.484;2023-06-26T15:28:27;33.90;99.90
41469;DHT22;27206;47.032;15.484;2023-06-26T15:30:52;33.60;99.90